Baltrum Airport

METAR ETNT TAF ETMN
2 °C
°C
-
°C
28m
Leeftijd
21:48:23
LT
20:48
UTC
0 ft

1.000

2.000

3.000

4.000

5.000

UNKN
<?= Yii::t('app', 'Wind direction') ?> <?= Yii::t('app', 'of'); ?>
060°
08:22
Zonsopgang
75%
Luchtvochtigheid
Windschering
Gesloten/sneeuw
Baanzicht
Baanconditie
Verticaal zicht
Min. zicht
CAVOK
Trend
Correctie
Speciaal rapport
1030 hPa
QNH
METAR ETNT 272020Z AUTO 06003KT //// // ////// 02/M02 Q1030 ///
Onbewolkt
2 kt
2 kt
21:00
MVFR
8 kt
Zicht
Geen
Plafond
3 kt
Wind
metar-taf.com/EDWZ

Metar-Taf.com

Visuele decoder

Wij en derden volgen je internetgedrag op onze website met cookies. Als je doorgaat, gaan we ervan uit dat je akkoord gaat met onze cookiebeleid.